createdAt,value
2023-02-11T00:01:30.508Z,30.45
2023-02-11T00:04:32.937Z,32.22
2023-02-11T00:07:35.368Z,31.02
2023-02-11T00:10:37.833Z,31.92
2023-02-11T00:13:40.170Z,31.02
2023-02-11T00:16:42.751Z,32.17
2023-02-11T00:19:44.976Z,31.77
2023-02-11T00:22:47.431Z,33.80
2023-02-11T00:25:49.748Z,32.13
2023-02-11T00:28:53.428Z,32.58
2023-02-11T00:31:55.736Z,30.45
2023-02-11T00:34:59.457Z,30.60
2023-02-11T00:38:01.585Z,32.13
2023-02-11T00:41:04.235Z,32.45
2023-02-11T00:44:06.872Z,32.13
2023-02-11T00:47:09.306Z,33.08
2023-02-11T00:50:11.424Z,33.13
2023-02-11T00:53:13.912Z,33.28
2023-02-11T00:56:16.172Z,30.88
2023-02-11T00:59:18.621Z,30.75
2023-02-11T01:02:20.763Z,31.62
2023-02-11T01:05:23.244Z,30.80
2023-02-11T01:08:25.463Z,32.00
2023-02-11T01:11:27.872Z,30.98
2023-02-11T01:14:30.124Z,29.80
2023-02-11T01:17:33.077Z,29.60
2023-02-11T01:20:35.410Z,29.95
2023-02-11T01:23:37.985Z,31.30
2023-02-11T01:26:40.130Z,29.52
2023-02-11T01:29:42.581Z,29.17
2023-02-11T01:32:44.773Z,28.42
2023-02-11T01:35:47.634Z,27.67
2023-02-11T01:38:49.922Z,28.38
2023-02-11T01:41:54.742Z,29.15
2023-02-11T01:44:58.097Z,27.67
2023-02-11T01:48:02.444Z,28.20
2023-02-11T01:51:18.243Z,29.05
2023-02-11T01:54:43.924Z,30.67
2023-02-11T01:57:51.350Z,29.08
2023-02-11T02:00:55.014Z,31.65
2023-02-11T02:04:01.977Z,29.40
2023-02-11T02:07:11.120Z,29.05
2023-02-11T02:10:19.169Z,27.52
2023-02-11T02:13:23.147Z,28.20
2023-02-11T02:16:33.697Z,28.42
2023-02-11T02:20:21.708Z,27.67
2023-02-11T02:23:52.608Z,27.77
2023-02-11T02:27:12.823Z,27.58
2023-02-11T02:30:52.995Z,27.90
2023-02-11T02:34:36.530Z,27.73
2023-02-11T02:37:51.338Z,30.45
2023-02-11T02:40:59.365Z,29.40
2023-02-11T02:44:02.592Z,30.25
2023-02-11T02:47:04.817Z,28.67
2023-02-11T02:50:09.706Z,29.15
2023-02-11T02:53:32.388Z,28.35
2023-02-11T02:57:08.610Z,28.98
2023-02-11T03:00:42.210Z,28.30
2023-02-11T03:04:08.810Z,28.15
2023-02-11T03:07:27.665Z,28.33
2023-02-11T03:10:34.264Z,28.70
2023-02-11T03:13:39.297Z,28.02
2023-02-11T03:16:45.635Z,29.65
2023-02-11T03:19:51.733Z,29.95
2023-02-11T03:22:58.369Z,28.73
2023-02-11T03:26:08.421Z,28.60
2023-02-11T03:29:29.020Z,28.33
2023-02-11T03:32:36.804Z,29.13
2023-02-11T03:35:45.900Z,27.20
2023-02-11T03:38:52.352Z,27.13
2023-02-11T03:41:58.582Z,27.67
2023-02-11T03:45:09.200Z,28.00
2023-02-11T03:48:14.546Z,28.08
2023-02-11T03:51:17.426Z,26.77
2023-02-11T03:54:26.570Z,26.77
2023-02-11T03:57:28.792Z,26.75
2023-02-11T04:00:34.158Z,28.60
2023-02-11T04:03:36.696Z,26.48
2023-02-11T04:06:39.257Z,26.35
2023-02-11T04:09:41.772Z,27.62
2023-02-11T04:12:43.946Z,27.60
2023-02-11T04:15:48.801Z,26.30
2023-02-11T04:18:51.279Z,27.50
2023-02-11T04:21:53.752Z,26.67
2023-02-11T04:24:55.984Z,27.17
2023-02-11T04:27:58.456Z,27.95
2023-02-11T04:31:00.648Z,28.12
2023-02-11T04:34:03.140Z,27.77
2023-02-11T04:37:05.345Z,27.15
2023-02-11T04:40:08.509Z,28.08
2023-02-11T04:43:10.696Z,27.85
2023-02-11T04:46:13.295Z,27.65
2023-02-11T04:49:16.760Z,26.52
2023-02-11T04:52:19.298Z,30.95
2023-02-11T04:55:21.520Z,30.37
2023-02-11T04:58:24.354Z,29.42
2023-02-11T05:01:26.643Z,28.42
2023-02-11T05:04:29.168Z,27.00
2023-02-11T05:07:31.460Z,27.25
2023-02-11T05:10:34.458Z,27.35
2023-02-11T05:13:37.063Z,27.73
2023-02-11T05:16:39.611Z,27.20
2023-02-11T05:19:42.137Z,27.45
2023-02-11T05:22:44.585Z,27.60
2023-02-11T05:25:46.753Z,27.05
2023-02-11T05:28:49.189Z,25.83
2023-02-11T05:31:51.366Z,26.35
2023-02-11T05:34:53.822Z,26.70
2023-02-11T05:37:56.031Z,26.95
2023-02-11T05:40:58.548Z,26.17
2023-02-11T05:44:00.785Z,27.42
2023-02-11T05:47:03.395Z,26.58
2023-02-11T05:50:06.252Z,25.80
2023-02-11T05:53:08.718Z,26.75
2023-02-11T05:56:11.616Z,25.58
2023-02-11T05:59:14.883Z,26.27
2023-02-11T06:02:17.078Z,25.77
2023-02-11T06:05:19.968Z,26.62
2023-02-11T06:08:22.301Z,26.62
2023-02-11T06:11:24.793Z,27.52
2023-02-11T06:14:27.410Z,27.42
2023-02-11T06:17:33.714Z,27.58
2023-02-11T06:20:36.074Z,27.55
2023-02-11T06:23:39.179Z,27.00
2023-02-11T06:26:41.409Z,26.77
2023-02-11T06:29:43.860Z,27.60
2023-02-11T06:32:46.427Z,26.55
2023-02-11T06:35:49.637Z,26.50
2023-02-11T06:38:53.311Z,25.88
2023-02-11T06:41:55.715Z,26.85
2023-02-11T06:44:57.901Z,27.37
2023-02-11T06:48:00.360Z,27.48
2023-02-11T06:51:07.137Z,27.75
2023-02-11T06:54:11.243Z,26.70
2023-02-11T06:57:13.431Z,26.45
2023-02-11T07:00:16.381Z,24.95
2023-02-11T07:03:18.635Z,25.33
2023-02-11T07:06:24.722Z,27.50
2023-02-11T07:09:26.883Z,25.23
2023-02-11T07:12:29.518Z,27.58
2023-02-11T07:15:31.797Z,26.62
2023-02-11T07:18:34.467Z,27.05
2023-02-11T07:21:36.666Z,26.27
2023-02-11T07:24:39.175Z,26.58
2023-02-11T07:27:41.365Z,25.88
2023-02-11T07:30:43.831Z,25.48
2023-02-11T07:33:46.513Z,23.08
2023-02-11T07:36:49.298Z,22.52
2023-02-11T07:39:51.472Z,21.27
2023-02-11T07:42:53.891Z,21.77
2023-02-11T07:45:56.094Z,22.77
2023-02-11T07:48:58.502Z,22.62
2023-02-11T07:52:00.648Z,22.17
2023-02-11T07:55:04.883Z,22.55
2023-02-11T07:58:07.138Z,22.25
2023-02-11T08:01:18.653Z,22.92
2023-02-11T08:04:21.248Z,22.02
2023-02-11T08:07:23.403Z,22.73
2023-02-11T08:10:25.798Z,21.80
2023-02-11T08:13:27.980Z,23.27
2023-02-11T08:16:35.450Z,23.38
2023-02-11T08:19:38.853Z,22.80
2023-02-11T08:22:41.296Z,22.95
2023-02-11T08:25:43.478Z,24.10
2023-02-11T08:28:48.070Z,23.35
2023-02-11T08:31:50.288Z,23.48
2023-02-11T08:34:53.269Z,22.75
2023-02-11T08:37:55.496Z,22.35
2023-02-11T08:41:00.660Z,24.10
2023-02-11T08:44:03.036Z,23.17
2023-02-11T08:47:05.463Z,23.50
2023-02-11T08:50:08.043Z,22.90
2023-02-11T08:53:10.587Z,23.15
2023-02-11T08:56:14.430Z,23.95
2023-02-11T08:59:17.744Z,23.87
2023-02-11T09:02:20.020Z,22.65
2023-02-11T09:05:23.163Z,24.55
2023-02-11T09:08:25.282Z,23.55
2023-02-11T09:11:30.962Z,22.25
2023-02-11T09:14:33.254Z,24.45
2023-02-11T09:17:35.683Z,24.30
2023-02-11T09:20:37.807Z,23.05
2023-02-11T09:23:43.504Z,21.50
2023-02-11T09:26:45.667Z,23.85
2023-02-11T09:29:48.153Z,21.73
2023-02-11T09:32:50.279Z,22.35
2023-02-11T09:35:52.716Z,22.35
2023-02-11T09:38:55.379Z,23.15
2023-02-11T09:42:18.348Z,23.77
2023-02-11T09:45:29.522Z,24.55
2023-02-11T09:48:40.788Z,24.42
2023-02-11T09:51:49.989Z,22.87
2023-02-11T09:54:58.834Z,24.40
2023-02-11T09:58:05.127Z,26.33
2023-02-11T10:01:28.944Z,26.12
2023-02-11T10:05:13.358Z,25.42
2023-02-11T10:08:50.707Z,24.08
2023-02-11T10:12:04.482Z,25.80
2023-02-11T10:15:06.532Z,26.35
2023-02-11T10:18:17.958Z,25.27
2023-02-11T10:24:22.496Z,24.60
2023-02-11T10:27:30.723Z,25.23
2023-02-11T10:30:38.872Z,25.70
2023-02-11T10:33:58.242Z,26.02
2023-02-11T10:37:00.727Z,23.90
2023-02-11T10:40:03.268Z,23.55
2023-02-11T10:43:10.523Z,24.87
2023-02-11T10:46:19.460Z,24.60
2023-02-11T10:49:46.018Z,24.85
2023-02-11T10:52:48.637Z,23.77
2023-02-11T10:55:57.277Z,23.98
2023-02-11T10:59:06.012Z,24.95
2023-02-11T11:02:31.980Z,23.85
2023-02-11T11:05:47.117Z,22.62
2023-02-11T11:08:51.617Z,22.15
2023-02-11T11:11:53.923Z,22.02
2023-02-11T11:14:59.922Z,21.58
2023-02-11T11:18:28.113Z,23.05
2023-02-11T11:21:40.643Z,25.60
2023-02-11T11:24:46.685Z,25.48
2023-02-11T11:27:51.204Z,22.98
2023-02-11T11:30:55.892Z,24.37
2023-02-11T11:34:00.940Z,24.50
2023-02-11T11:37:22.056Z,19.80
2023-02-11T11:40:27.932Z,20.15
2023-02-11T11:43:30.221Z,19.77
2023-02-11T11:46:35.864Z,19.08
2023-02-11T11:49:40.894Z,19.27
2023-02-11T11:53:03.989Z,18.85
2023-02-11T11:56:13.184Z,18.70
2023-02-11T11:59:17.078Z,19.15
2023-02-11T12:02:50.627Z,19.70
2023-02-11T12:06:25.028Z,19.27
2023-02-11T12:09:51.751Z,18.42
2023-02-11T12:13:17.563Z,17.55
2023-02-11T12:16:25.312Z,17.83
2023-02-11T12:19:46.389Z,18.70
2023-02-11T12:23:28.989Z,16.60
2023-02-11T12:26:57.894Z,18.45
2023-02-11T12:30:18.342Z,19.12
2023-02-11T12:33:53.768Z,17.35
2023-02-11T12:37:27.170Z,17.70
2023-02-11T12:40:46.313Z,18.37
2023-02-11T12:43:49.772Z,17.80
2023-02-11T12:47:08.377Z,17.37
2023-02-11T12:50:25.382Z,17.67
2023-02-11T12:54:10.819Z,17.40
2023-02-11T12:57:26.557Z,17.73
2023-02-11T13:00:42.004Z,17.23
2023-02-11T13:03:54.241Z,17.45
2023-02-11T13:07:02.263Z,17.55
2023-02-11T13:10:07.611Z,17.42
2023-02-11T13:13:31.612Z,16.30
2023-02-11T13:16:42.682Z,15.90
2023-02-11T13:19:52.858Z,13.90
2023-02-11T13:23:22.823Z,13.98
2023-02-11T13:26:45.607Z,13.75
2023-02-11T13:30:25.440Z,13.43
2023-02-11T13:33:34.202Z,13.90
2023-02-11T13:36:36.400Z,12.85
2023-02-11T13:39:39.366Z,13.07
2023-02-11T13:42:52.237Z,13.52
2023-02-11T13:46:00.554Z,13.95
2023-02-11T13:49:02.833Z,14.48
2023-02-11T13:52:18.379Z,14.18
2023-02-11T13:55:23.811Z,13.65
2023-02-11T13:58:28.967Z,14.27
2023-02-11T14:01:39.421Z,14.13
2023-02-11T14:05:31.748Z,13.68
2023-02-11T14:08:52.433Z,14.38
2023-02-11T14:12:31.504Z,13.38
2023-02-11T14:15:40.489Z,13.73
2023-02-11T14:18:49.227Z,13.75
2023-02-11T14:21:51.412Z,14.18
2023-02-11T14:25:01.450Z,14.07
2023-02-11T14:28:17.348Z,13.30
2023-02-11T14:31:26.232Z,12.60
2023-02-11T14:34:51.718Z,13.43
2023-02-11T14:38:00.207Z,14.05
2023-02-11T14:41:25.399Z,13.95
2023-02-11T14:44:31.250Z,13.50
2023-02-11T14:47:46.758Z,14.10
2023-02-11T14:51:00.550Z,13.55
2023-02-11T14:54:24.893Z,13.62
2023-02-11T14:57:28.079Z,14.25
2023-02-11T15:00:30.503Z,13.68
2023-02-11T15:03:36.249Z,14.57
2023-02-11T15:06:49.723Z,14.43
2023-02-11T15:09:54.165Z,14.63
2023-02-11T15:12:57.471Z,14.45
2023-02-11T15:16:09.288Z,14.95
2023-02-11T15:19:28.397Z,14.80
2023-02-11T15:22:36.503Z,14.70
2023-02-11T15:25:51.173Z,14.20
2023-02-11T15:28:53.680Z,14.43
2023-02-11T15:32:23.152Z,15.73
2023-02-11T15:35:32.386Z,14.65
2023-02-11T15:38:34.574Z,14.15
2023-02-11T15:41:38.699Z,14.98
2023-02-11T15:44:41.344Z,15.32
2023-02-11T15:47:53.727Z,16.67
2023-02-11T15:51:00.206Z,16.05
2023-02-11T15:54:08.938Z,16.42
2023-02-11T15:57:11.733Z,16.75
2023-02-11T16:00:17.189Z,15.57
2023-02-11T16:03:25.349Z,16.17
2023-02-11T16:06:36.978Z,15.55
2023-02-11T16:09:39.819Z,15.38
2023-02-11T16:12:54.727Z,16.10
2023-02-11T16:16:02.452Z,15.32
2023-02-11T16:19:06.442Z,16.35
2023-02-11T16:22:14.879Z,16.33
2023-02-11T16:25:20.599Z,15.43
2023-02-11T16:28:23.102Z,16.05
2023-02-11T16:31:42.150Z,16.87
2023-02-11T16:34:44.573Z,16.35
2023-02-11T16:37:46.716Z,18.05
2023-02-11T16:40:50.043Z,15.88
2023-02-11T16:43:52.392Z,17.25
2023-02-11T16:46:58.445Z,15.90
2023-02-11T16:50:02.221Z,16.73
2023-02-11T16:53:06.436Z,17.35
2023-02-11T16:56:16.055Z,15.20
2023-02-11T16:59:18.553Z,16.55
2023-02-11T17:02:26.062Z,18.23
2023-02-11T17:05:28.475Z,18.30
2023-02-11T17:08:30.614Z,17.17
2023-02-11T17:11:33.068Z,16.85
2023-02-11T17:14:35.239Z,16.23
2023-02-11T17:17:37.762Z,17.08
2023-02-11T17:20:40.474Z,16.37
2023-02-11T17:23:43.112Z,16.50
2023-02-11T17:26:46.270Z,17.08
2023-02-11T17:29:48.792Z,16.87
2023-02-11T17:32:51.007Z,17.05
2023-02-11T17:35:53.933Z,17.15
2023-02-11T17:38:56.525Z,17.52
2023-02-11T17:41:58.979Z,17.83
2023-02-11T17:45:01.161Z,17.75
2023-02-11T17:48:03.828Z,18.35
2023-02-11T17:51:20.470Z,18.48
2023-02-11T17:54:23.029Z,17.42
2023-02-11T17:57:25.158Z,17.85
2023-02-11T18:00:28.363Z,18.65
2023-02-11T18:03:30.892Z,19.58
2023-02-11T18:06:36.191Z,18.62
2023-02-11T18:09:40.445Z,19.27
2023-02-11T18:12:42.836Z,19.37
2023-02-11T18:15:45.247Z,19.52
2023-02-11T18:18:47.611Z,18.58
2023-02-11T18:21:50.918Z,19.60
2023-02-11T18:24:54.665Z,18.95
2023-02-11T18:27:57.089Z,20.88
2023-02-11T18:31:00.179Z,19.27
2023-02-11T18:34:05.759Z,19.40
2023-02-11T18:37:08.275Z,20.37
2023-02-11T18:40:11.491Z,20.33
2023-02-11T18:43:14.351Z,19.98
2023-02-11T18:46:17.268Z,18.77
2023-02-11T18:49:20.180Z,19.17
2023-02-11T18:52:22.696Z,18.27
2023-02-11T18:55:25.907Z,19.42
2023-02-11T18:58:28.385Z,19.08
2023-02-11T19:01:33.033Z,19.92
2023-02-11T19:04:37.324Z,20.02
2023-02-11T19:07:39.713Z,19.77
2023-02-11T19:10:44.451Z,20.92
2023-02-11T19:13:47.837Z,21.02
2023-02-11T19:16:52.795Z,20.50
2023-02-11T19:19:55.014Z,21.67
2023-02-11T19:22:57.436Z,21.20
2023-02-11T19:25:59.631Z,21.20
2023-02-11T19:29:02.285Z,21.62
2023-02-11T19:32:08.579Z,20.85
2023-02-11T19:35:11.064Z,21.73
2023-02-11T19:38:15.672Z,20.37
2023-02-11T19:41:23.055Z,20.55
2023-02-11T19:44:25.252Z,20.23
2023-02-11T19:47:27.892Z,23.33
2023-02-11T19:50:30.219Z,22.02
2023-02-11T19:53:32.595Z,20.58
2023-02-11T19:59:12.028Z,20.30
2023-02-11T20:02:14.598Z,20.85
2023-02-11T20:05:17.091Z,20.98
2023-02-11T20:08:19.203Z,21.30
2023-02-11T20:11:21.594Z,22.42
2023-02-11T20:14:26.159Z,21.67
2023-02-11T20:17:29.985Z,21.05
2023-02-11T20:20:32.214Z,22.55
2023-02-11T20:23:35.717Z,20.48
2023-02-11T20:26:40.824Z,20.62
2023-02-11T20:29:43.208Z,19.20
2023-02-11T20:32:45.409Z,20.15
2023-02-11T20:35:56.854Z,19.37
2023-02-11T20:42:01.965Z,19.55
2023-02-11T20:45:04.316Z,18.75
2023-02-11T20:48:06.752Z,18.85
2023-02-11T20:51:11.650Z,15.57
2023-02-11T20:54:17.634Z,15.35
2023-02-11T20:57:19.810Z,13.65
2023-02-11T21:00:22.261Z,15.48
2023-02-11T21:03:24.516Z,14.93
2023-02-11T21:06:31.207Z,15.18
2023-02-11T21:09:33.622Z,15.20
2023-02-11T21:12:36.105Z,14.45
2023-02-11T21:15:38.259Z,15.88
2023-02-11T21:18:40.688Z,15.27
2023-02-11T21:21:43.113Z,14.57
2023-02-11T21:24:45.604Z,15.02
2023-02-11T21:27:47.722Z,15.48
2023-02-11T21:30:50.579Z,15.02
2023-02-11T21:33:54.986Z,16.05
2023-02-11T21:36:57.406Z,14.85
2023-02-11T21:39:59.587Z,15.50
2023-02-11T21:43:01.988Z,15.32
2023-02-11T21:46:13.105Z,15.20
2023-02-11T21:49:15.581Z,13.90
2023-02-11T21:52:17.680Z,15.93
2023-02-11T21:55:20.150Z,15.75
2023-02-11T21:58:22.776Z,15.18
2023-02-11T22:01:27.765Z,14.48
2023-02-11T22:04:30.825Z,15.38
2023-02-11T22:07:35.468Z,15.70
2023-02-11T22:10:38.912Z,15.43
2023-02-11T22:13:41.415Z,14.73
2023-02-11T22:16:45.265Z,15.80
2023-02-11T22:19:47.397Z,14.70
2023-02-11T22:22:50.727Z,15.80
2023-02-11T22:25:53.102Z,15.48
2023-02-11T22:28:56.370Z,15.10
2023-02-11T22:31:58.677Z,14.90
2023-02-11T22:35:01.202Z,15.30
2023-02-11T22:38:04.381Z,16.37
2023-02-11T22:41:10.216Z,15.88
2023-02-11T22:44:13.283Z,16.02
2023-02-11T22:47:15.671Z,16.37
2023-02-11T22:50:17.853Z,15.23
2023-02-11T22:53:20.313Z,15.48
2023-02-11T22:56:23.735Z,15.52
2023-02-11T22:59:26.191Z,15.85
2023-02-11T23:02:28.376Z,15.25
2023-02-11T23:05:30.854Z,15.60
2023-02-11T23:08:33.670Z,15.25
2023-02-11T23:11:36.443Z,17.10
2023-02-11T23:14:38.540Z,15.35
2023-02-11T23:17:40.937Z,16.00
2023-02-11T23:20:43.893Z,16.08
2023-02-11T23:23:46.657Z,14.73
2023-02-11T23:26:49.146Z,14.73
2023-02-11T23:29:51.531Z,15.80
2023-02-11T23:32:53.731Z,15.65
2023-02-11T23:35:56.363Z,16.45
2023-02-11T23:38:58.710Z,15.65
2023-02-11T23:42:01.212Z,15.60
2023-02-11T23:45:03.520Z,16.35
2023-02-11T23:48:05.982Z,15.95
2023-02-11T23:51:09.783Z,15.98
2023-02-11T23:54:13.822Z,15.45
2023-02-11T23:57:16.004Z,15.45
